createdAt,value
2018-09-29T00:00:17.621Z,2.70
2018-09-29T00:02:48.748Z,3.33
2018-09-29T00:05:18.680Z,3.10
2018-09-29T00:07:48.627Z,2.87
2018-09-29T00:10:18.632Z,2.97
2018-09-29T00:12:47.510Z,3.07
2018-09-29T00:15:17.302Z,3.27
2018-09-29T00:17:46.457Z,3.07
2018-09-29T00:20:15.527Z,3.23
2018-09-29T00:22:44.708Z,3.07
2018-09-29T00:25:13.695Z,3.40
2018-09-29T00:27:42.788Z,2.87
2018-09-29T00:30:12.340Z,3.10
2018-09-29T00:32:41.445Z,2.70
2018-09-29T00:35:11.109Z,2.67
2018-09-29T00:37:40.353Z,2.77
2018-09-29T00:40:09.896Z,2.60
2018-09-29T00:42:39.615Z,2.57
2018-09-29T00:45:08.551Z,3.10
2018-09-29T00:47:38.928Z,3.73
2018-09-29T00:50:08.111Z,3.90
2018-09-29T00:52:37.867Z,3.37
2018-09-29T00:55:06.949Z,3.50
2018-09-29T00:57:36.859Z,3.23
2018-09-29T01:00:06.316Z,3.00
2018-09-29T01:02:35.500Z,3.13
2018-09-29T01:05:04.897Z,3.70
2018-09-29T01:07:34.206Z,3.40
2018-09-29T01:10:03.662Z,3.00
2018-09-29T01:12:32.742Z,2.70
2018-09-29T01:15:02.306Z,3.07
2018-09-29T01:17:31.716Z,3.00
2018-09-29T01:20:01.032Z,3.33
2018-09-29T01:22:30.660Z,3.20
2018-09-29T01:25:00.561Z,3.10
2018-09-29T01:27:29.519Z,2.70
2018-09-29T01:29:58.729Z,2.57
2018-09-29T01:32:28.248Z,2.97
2018-09-29T01:34:57.444Z,2.97
2018-09-29T01:37:26.488Z,3.47
2018-09-29T01:39:56.448Z,3.77
2018-09-29T01:42:27.378Z,4.10
2018-09-29T01:44:56.718Z,3.80
2018-09-29T01:47:26.227Z,4.20
2018-09-29T01:49:55.427Z,3.60
2018-09-29T01:52:25.359Z,3.00
2018-09-29T01:54:54.630Z,3.60
2018-09-29T01:57:23.945Z,3.87
2018-09-29T01:59:52.945Z,3.37
2018-09-29T02:02:22.837Z,3.40
2018-09-29T02:04:53.577Z,4.00
2018-09-29T02:07:23.015Z,3.20
2018-09-29T02:09:52.364Z,3.00
2018-09-29T02:12:21.687Z,3.10
2018-09-29T02:14:51.015Z,3.13
2018-09-29T02:17:20.197Z,3.03
2018-09-29T02:19:50.342Z,3.37
2018-09-29T02:22:19.691Z,3.30
2018-09-29T02:24:48.964Z,3.70
2018-09-29T02:27:18.095Z,3.40
2018-09-29T02:29:47.617Z,3.67
2018-09-29T02:32:16.782Z,4.00
2018-09-29T02:34:46.234Z,3.47
2018-09-29T02:37:15.959Z,3.27
2018-09-29T02:39:45.103Z,3.70
2018-09-29T02:42:15.064Z,3.20
2018-09-29T02:44:44.199Z,3.53
2018-09-29T02:47:14.636Z,3.40
2018-09-29T02:49:44.010Z,3.40
2018-09-29T02:52:13.590Z,3.07
2018-09-29T02:54:42.720Z,3.40
2018-09-29T02:57:11.915Z,3.40
2018-09-29T02:59:40.910Z,3.70
2018-09-29T03:02:09.948Z,3.80
2018-09-29T03:04:39.747Z,3.60
2018-09-29T03:07:15.515Z,3.40
2018-09-29T03:09:45.240Z,4.33
2018-09-29T03:12:14.331Z,3.53
2018-09-29T03:14:43.855Z,3.53
2018-09-29T03:17:13.059Z,3.50
2018-09-29T03:19:42.101Z,4.10
2018-09-29T03:22:11.391Z,3.90
2018-09-29T03:24:40.696Z,4.23
2018-09-29T03:27:10.249Z,3.33
2018-09-29T03:29:39.642Z,3.37
2018-09-29T03:32:09.217Z,3.37
2018-09-29T03:34:38.695Z,3.57
2018-09-29T03:37:07.644Z,3.70
2018-09-29T03:39:36.905Z,3.57
2018-09-29T03:42:06.661Z,3.40
2018-09-29T03:44:35.931Z,3.77
2018-09-29T03:47:05.529Z,3.20
2018-09-29T03:49:34.694Z,3.40
2018-09-29T03:52:03.835Z,3.73
2018-09-29T03:54:34.208Z,3.00
2018-09-29T03:57:04.894Z,3.97
2018-09-29T03:59:34.881Z,3.63
2018-09-29T04:02:04.734Z,3.37
2018-09-29T04:04:34.163Z,3.10
2018-09-29T04:07:03.167Z,3.27
2018-09-29T04:09:32.321Z,3.30
2018-09-29T04:12:01.478Z,3.10
2018-09-29T04:14:30.673Z,3.73
2018-09-29T04:16:59.717Z,2.93
2018-09-29T04:19:28.807Z,2.90
2018-09-29T04:21:58.616Z,2.93
2018-09-29T04:24:27.647Z,2.87
2018-09-29T04:26:56.688Z,2.70
2018-09-29T04:29:25.852Z,2.70
2018-09-29T04:31:56.256Z,3.40
2018-09-29T04:34:25.523Z,3.63
2018-09-29T04:36:54.748Z,3.63
2018-09-29T04:39:23.915Z,3.63
2018-09-29T04:41:53.152Z,3.70
2018-09-29T04:44:24.590Z,3.33
2018-09-29T04:46:53.833Z,4.30
2018-09-29T04:49:23.505Z,4.30
2018-09-29T04:51:52.901Z,4.47
2018-09-29T04:54:22.428Z,4.77
2018-09-29T04:56:53.430Z,4.70
2018-09-29T04:59:24.074Z,3.77
2018-09-29T05:01:53.907Z,5.13
2018-09-29T05:04:23.194Z,4.00
2018-09-29T05:06:52.240Z,4.17
2018-09-29T05:09:24.933Z,4.00
2018-09-29T05:11:59.073Z,4.00
2018-09-29T05:14:29.462Z,4.20
2018-09-29T05:16:58.733Z,4.27
2018-09-29T05:19:28.430Z,4.23
2018-09-29T05:21:58.139Z,4.87
2018-09-29T05:24:29.268Z,4.10
2018-09-29T05:26:58.906Z,4.47
2018-09-29T05:29:28.300Z,4.50
2018-09-29T05:31:57.725Z,4.27
2018-09-29T05:34:27.133Z,3.90
2018-09-29T05:36:56.260Z,3.83
2018-09-29T05:39:25.570Z,3.80
2018-09-29T05:41:54.964Z,3.80
2018-09-29T05:44:24.271Z,3.00
2018-09-29T05:46:54.427Z,3.37
2018-09-29T05:49:23.753Z,3.30
2018-09-29T05:51:53.180Z,2.73
2018-09-29T05:54:22.523Z,3.00
2018-09-29T05:56:51.928Z,3.60
2018-09-29T05:59:21.285Z,2.50
2018-09-29T06:01:50.762Z,2.20
2018-09-29T06:04:20.058Z,2.67
2018-09-29T06:06:49.514Z,2.33
2018-09-29T06:09:18.880Z,2.00
2018-09-29T06:11:48.413Z,2.43
2018-09-29T06:14:18.026Z,2.83
2018-09-29T06:16:47.295Z,2.90
2018-09-29T06:19:16.869Z,2.47
2018-09-29T06:21:45.959Z,2.40
2018-09-29T06:24:14.898Z,2.00
2018-09-29T06:26:44.262Z,2.00
2018-09-29T06:29:13.275Z,1.80
2018-09-29T06:31:44.007Z,2.00
2018-09-29T06:34:13.367Z,2.00
2018-09-29T06:36:42.524Z,2.17
2018-09-29T06:39:12.568Z,2.53
2018-09-29T06:41:41.916Z,3.23
2018-09-29T06:44:11.109Z,3.90
2018-09-29T06:46:40.523Z,2.97
2018-09-29T06:49:09.900Z,2.20
2018-09-29T06:51:39.175Z,2.50
2018-09-29T06:54:08.428Z,1.70
2018-09-29T06:56:38.043Z,1.90
2018-09-29T06:59:07.404Z,2.33
2018-09-29T07:01:37.070Z,2.57
2018-09-29T07:04:06.492Z,2.13
2018-09-29T07:06:37.016Z,2.67
2018-09-29T07:09:08.726Z,2.93
2018-09-29T07:11:38.072Z,2.70
2018-09-29T07:14:08.018Z,2.60
2018-09-29T07:16:37.408Z,2.50
2018-09-29T07:19:06.804Z,2.40
2018-09-29T07:21:36.148Z,2.67
2018-09-29T07:24:05.322Z,2.40
2018-09-29T07:26:34.633Z,2.47
2018-09-29T07:29:03.793Z,2.67
2018-09-29T07:31:33.333Z,2.60
2018-09-29T07:34:02.531Z,2.47
2018-09-29T07:36:32.641Z,2.87
2018-09-29T07:39:02.026Z,2.13
2018-09-29T07:41:31.284Z,2.27
2018-09-29T07:44:00.764Z,2.83
2018-09-29T07:46:29.948Z,2.50
2018-09-29T07:48:59.484Z,2.77
2018-09-29T07:51:28.548Z,2.40
2018-09-29T07:53:58.159Z,2.83
2018-09-29T07:56:27.541Z,3.23
2018-09-29T07:58:56.809Z,3.00
2018-09-29T08:01:26.313Z,3.07
2018-09-29T08:03:55.627Z,3.37
2018-09-29T08:06:24.786Z,2.47
2018-09-29T08:08:54.185Z,2.77
2018-09-29T08:11:23.462Z,3.53
2018-09-29T08:13:53.295Z,3.70
2018-09-29T08:16:23.070Z,2.60
2018-09-29T08:18:52.284Z,2.57
2018-09-29T08:21:21.588Z,2.73
2018-09-29T08:23:50.947Z,2.80
2018-09-29T08:26:20.497Z,2.33
2018-09-29T08:28:49.920Z,2.70
2018-09-29T08:31:20.208Z,2.50
2018-09-29T08:33:49.536Z,2.27
2018-09-29T08:36:18.814Z,2.52
2018-09-29T08:38:48.331Z,2.12
2018-09-29T08:41:17.576Z,2.85
2018-09-29T08:43:48.096Z,2.52
2018-09-29T08:46:17.500Z,2.55
2018-09-29T08:48:47.141Z,2.15
2018-09-29T08:51:16.520Z,2.77
2018-09-29T08:53:46.080Z,2.47
2018-09-29T08:56:15.421Z,2.30
2018-09-29T08:58:44.750Z,2.40
2018-09-29T09:01:14.171Z,2.50
2018-09-29T09:03:43.598Z,2.27
2018-09-29T09:06:14.133Z,1.92
2018-09-29T09:08:43.496Z,2.65
2018-09-29T09:11:13.880Z,2.27
2018-09-29T09:13:43.180Z,2.70
2018-09-29T09:16:12.596Z,2.25
2018-09-29T09:18:41.930Z,2.65
2018-09-29T09:21:11.497Z,2.65
2018-09-29T09:23:40.806Z,2.70
2018-09-29T09:26:10.054Z,2.40
2018-09-29T09:28:39.370Z,2.50
2018-09-29T09:31:09.075Z,2.43
2018-09-29T09:33:38.505Z,2.10
2018-09-29T09:36:08.120Z,2.53
2018-09-29T09:38:37.676Z,1.93
2018-09-29T09:41:06.939Z,1.40
2018-09-29T09:43:36.894Z,2.50
2018-09-29T09:46:06.649Z,1.60
2018-09-29T09:48:35.790Z,1.43
2018-09-29T09:51:06.035Z,1.30
2018-09-29T09:53:35.379Z,1.40
2018-09-29T09:56:05.106Z,1.03
2018-09-29T09:58:34.464Z,1.90
2018-09-29T10:01:09.051Z,1.20
2018-09-29T10:03:41.002Z,1.23
2018-09-29T10:06:10.285Z,0.85
2018-09-29T10:08:46.550Z,1.50
2018-09-29T10:11:15.881Z,0.90
2018-09-29T10:13:45.176Z,1.30
2018-09-29T10:16:14.553Z,1.33
2018-09-29T10:18:43.759Z,1.20
2018-09-29T10:21:13.075Z,1.50
2018-09-29T10:23:42.420Z,1.20
2018-09-29T10:26:13.523Z,1.20
2018-09-29T10:28:42.932Z,1.77
2018-09-29T10:31:12.389Z,0.80
2018-09-29T10:33:41.976Z,2.00
2018-09-29T10:36:11.013Z,1.27
2018-09-29T10:38:40.468Z,1.70
2018-09-29T10:41:09.694Z,0.80
2018-09-29T10:43:39.306Z,1.13
2018-09-29T10:46:08.618Z,1.10
2018-09-29T10:48:38.203Z,1.23
2018-09-29T10:51:07.356Z,1.30
2018-09-29T10:53:36.636Z,1.13
2018-09-29T10:56:05.964Z,1.00
2018-09-29T10:58:35.215Z,1.30
2018-09-29T11:01:04.501Z,1.03
2018-09-29T11:03:33.903Z,1.57
2018-09-29T11:06:03.498Z,1.70
2018-09-29T11:08:32.601Z,1.07
2018-09-29T11:11:02.165Z,1.33
2018-09-29T11:13:31.261Z,1.30
2018-09-29T11:16:00.706Z,1.33
2018-09-29T11:18:29.969Z,1.30
2018-09-29T11:20:59.146Z,1.60
2018-09-29T11:23:28.544Z,1.40
2018-09-29T11:25:57.986Z,1.47
2018-09-29T11:28:27.351Z,1.13
2018-09-29T11:30:56.978Z,1.90
2018-09-29T11:33:27.117Z,1.33
2018-09-29T11:35:56.622Z,1.33
2018-09-29T11:38:25.852Z,1.67
2018-09-29T11:40:55.291Z,1.23
2018-09-29T11:43:24.768Z,1.43
2018-09-29T11:45:54.185Z,1.00
2018-09-29T11:48:23.282Z,1.90
2018-09-29T11:50:52.325Z,0.97
2018-09-29T11:53:21.627Z,1.33
2018-09-29T11:55:53.309Z,1.40
2018-09-29T11:58:22.599Z,1.37
2018-09-29T12:00:51.907Z,1.20
2018-09-29T12:03:21.348Z,1.30
2018-09-29T12:05:50.885Z,1.10
2018-09-29T12:08:20.418Z,1.33
2018-09-29T12:10:49.915Z,1.20
2018-09-29T12:13:19.389Z,1.43
2018-09-29T12:15:48.704Z,1.33
2018-09-29T12:18:18.691Z,1.20
2018-09-29T12:20:48.062Z,1.07
2018-09-29T12:23:17.892Z,1.83
2018-09-29T12:25:47.964Z,1.67
2018-09-29T12:28:17.149Z,1.20
2018-09-29T12:30:46.467Z,1.10
2018-09-29T12:33:15.793Z,1.70
2018-09-29T12:35:45.406Z,1.50
2018-09-29T12:38:14.814Z,1.80
2018-09-29T12:40:44.125Z,1.67
2018-09-29T12:43:13.615Z,1.33
2018-09-29T12:45:43.048Z,1.70
2018-09-29T12:48:12.202Z,1.47
2018-09-29T12:50:42.320Z,1.40
2018-09-29T12:53:11.465Z,1.23
2018-09-29T12:55:40.832Z,1.50
2018-09-29T12:58:10.110Z,1.27
2018-09-29T13:00:39.380Z,1.40
2018-09-29T13:03:09.000Z,1.20
2018-09-29T13:05:38.453Z,1.13
2018-09-29T13:08:08.043Z,1.30
2018-09-29T13:10:37.441Z,1.50
2018-09-29T13:13:07.146Z,1.40
2018-09-29T13:15:36.449Z,1.77
2018-09-29T13:18:06.404Z,1.23
2018-09-29T13:20:35.761Z,1.33
2018-09-29T13:23:05.078Z,1.00
2018-09-29T13:25:34.216Z,1.50
2018-09-29T13:28:03.462Z,1.23
2018-09-29T13:30:32.652Z,1.20
2018-09-29T13:33:01.743Z,1.43
2018-09-29T13:35:31.502Z,1.17
2018-09-29T13:38:00.945Z,1.23
2018-09-29T13:40:30.274Z,1.20
2018-09-29T13:42:59.728Z,1.50
2018-09-29T13:45:29.207Z,1.33
2018-09-29T13:47:59.737Z,1.30
2018-09-29T13:50:29.142Z,1.20
2018-09-29T13:52:58.438Z,1.27
2018-09-29T13:55:27.842Z,1.03
2018-09-29T13:57:57.257Z,1.30
2018-09-29T14:00:28.059Z,1.50
2018-09-29T14:02:57.538Z,1.40
2018-09-29T14:05:30.223Z,1.40
2018-09-29T14:08:00.457Z,1.13
2018-09-29T14:10:29.805Z,0.90
2018-09-29T14:12:59.467Z,1.40
2018-09-29T14:15:28.842Z,1.30
2018-09-29T14:17:58.164Z,1.50
2018-09-29T14:20:27.538Z,1.20
2018-09-29T14:22:57.711Z,1.37
2018-09-29T14:25:27.177Z,0.90
2018-09-29T14:27:56.970Z,1.57
2018-09-29T14:30:26.380Z,1.53
2018-09-29T14:32:55.783Z,1.20
2018-09-29T14:35:25.025Z,1.50
2018-09-29T14:37:54.519Z,2.30
2018-09-29T14:40:23.850Z,1.60
2018-09-29T14:42:53.231Z,1.40
2018-09-29T14:45:22.591Z,1.83
2018-09-29T14:47:52.162Z,1.53
2018-09-29T14:50:22.397Z,1.10
2018-09-29T14:52:51.914Z,2.23
2018-09-29T14:55:21.252Z,1.30
2018-09-29T14:57:50.958Z,1.00
2018-09-29T15:00:20.361Z,1.60
2018-09-29T15:02:49.707Z,1.30
2018-09-29T15:05:19.251Z,1.13
2018-09-29T15:07:48.678Z,1.63
2018-09-29T15:10:18.174Z,1.40
2018-09-29T15:12:47.451Z,1.60
2018-09-29T15:15:16.873Z,1.20
2018-09-29T15:17:46.630Z,2.03
2018-09-29T15:20:15.974Z,1.47
2018-09-29T15:22:45.653Z,0.93
2018-09-29T15:25:15.034Z,1.07
2018-09-29T15:27:44.368Z,1.30
2018-09-29T15:30:13.715Z,1.50
2018-09-29T15:32:43.113Z,1.10
2018-09-29T15:35:12.752Z,1.00
2018-09-29T15:37:42.167Z,1.40
2018-09-29T15:40:12.000Z,1.33
2018-09-29T15:42:41.585Z,1.20
2018-09-29T15:45:11.336Z,1.10
2018-09-29T15:47:41.138Z,1.20
2018-09-29T15:50:10.442Z,1.10
2018-09-29T15:52:39.775Z,1.33
2018-09-29T15:55:09.270Z,1.07
2018-09-29T15:57:38.804Z,1.30
2018-09-29T16:00:08.025Z,1.63
2018-09-29T16:02:37.178Z,1.63
2018-09-29T16:05:06.570Z,1.43
2018-09-29T16:07:36.151Z,1.63
2018-09-29T16:10:05.623Z,1.20
2018-09-29T16:12:35.030Z,1.17
2018-09-29T16:15:04.281Z,1.40
2018-09-29T16:17:34.241Z,1.43
2018-09-29T16:20:03.553Z,1.27
2018-09-29T16:22:32.926Z,1.50
2018-09-29T16:25:01.992Z,1.07
2018-09-29T16:27:31.378Z,1.40
2018-09-29T16:30:02.356Z,1.83
2018-09-29T16:32:31.705Z,1.77
2018-09-29T16:35:01.004Z,1.30
2018-09-29T16:37:33.511Z,1.50
2018-09-29T16:40:03.215Z,1.37
2018-09-29T16:42:32.660Z,1.10
2018-09-29T16:45:02.207Z,1.33
2018-09-29T16:47:31.590Z,1.50
2018-09-29T16:50:00.810Z,1.30
2018-09-29T16:52:30.133Z,1.40
2018-09-29T16:54:59.552Z,1.23
2018-09-29T16:57:29.187Z,1.83
2018-09-29T16:59:58.682Z,1.63
2018-09-29T17:02:27.953Z,1.23
2018-09-29T17:04:57.394Z,1.40
2018-09-29T17:07:27.314Z,1.60
2018-09-29T17:09:56.659Z,1.83
2018-09-29T17:12:26.703Z,1.70
2018-09-29T17:14:55.755Z,1.50
2018-09-29T17:17:24.858Z,1.90
2018-09-29T17:19:54.125Z,1.80
2018-09-29T17:22:23.425Z,1.30
2018-09-29T17:24:52.756Z,1.17
2018-09-29T17:27:22.188Z,1.70
2018-09-29T17:29:52.118Z,1.37
2018-09-29T17:32:21.433Z,1.17
2018-09-29T17:34:51.281Z,1.17
2018-09-29T17:37:20.704Z,1.50
2018-09-29T17:39:49.843Z,1.47
2018-09-29T17:42:19.160Z,1.60
2018-09-29T17:44:49.449Z,1.63
2018-09-29T17:47:20.053Z,1.23
2018-09-29T17:49:50.363Z,1.40
2018-09-29T17:52:19.641Z,1.63
2018-09-29T17:54:49.069Z,1.77
2018-09-29T17:57:18.412Z,1.40
2018-09-29T17:59:47.611Z,2.30
2018-09-29T18:02:16.954Z,3.03
2018-09-29T18:04:47.008Z,2.80
2018-09-29T18:07:16.353Z,2.00
2018-09-29T18:09:45.409Z,4.07
2018-09-29T18:12:16.945Z,3.30
2018-09-29T18:14:46.074Z,3.20
2018-09-29T18:17:15.440Z,2.77
2018-09-29T18:19:44.747Z,2.40
2018-09-29T18:22:14.086Z,2.20
2018-09-29T18:24:44.281Z,2.93
2018-09-29T18:27:13.750Z,2.67
2018-09-29T18:29:42.980Z,3.43
2018-09-29T18:32:12.460Z,4.30
2018-09-29T18:34:43.755Z,3.70
2018-09-29T18:37:13.255Z,3.00
2018-09-29T18:39:43.148Z,2.60
2018-09-29T18:42:13.022Z,3.00
2018-09-29T18:44:42.428Z,2.90
2018-09-29T18:47:11.833Z,3.03
2018-09-29T18:49:45.712Z,3.17
2018-09-29T18:52:16.897Z,2.33
2018-09-29T18:54:46.317Z,2.57
2018-09-29T18:57:15.931Z,2.27
2018-09-29T18:59:45.411Z,2.30
2018-09-29T19:02:15.325Z,2.33
2018-09-29T19:04:44.762Z,2.10
2018-09-29T19:07:14.344Z,2.40
2018-09-29T19:09:44.580Z,2.43
2018-09-29T19:12:13.815Z,2.17
2018-09-29T19:14:43.353Z,2.10
2018-09-29T19:17:13.827Z,2.20
2018-09-29T19:19:43.205Z,2.43
2018-09-29T19:22:13.998Z,2.70
2018-09-29T19:24:43.195Z,2.60
2018-09-29T19:27:12.936Z,2.63
2018-09-29T19:29:42.161Z,2.57
2018-09-29T19:32:12.011Z,2.63
2018-09-29T19:34:41.100Z,2.30
2018-09-29T19:37:10.991Z,2.90
2018-09-29T19:39:40.636Z,2.70
2018-09-29T19:42:10.125Z,3.63
2018-09-29T19:44:40.680Z,2.60
2018-09-29T19:47:10.053Z,3.43
2018-09-29T19:49:39.826Z,3.20
2018-09-29T19:52:09.095Z,3.20
2018-09-29T19:54:38.471Z,3.40
2018-09-29T19:57:07.797Z,3.33
2018-09-29T19:59:37.210Z,3.40
2018-09-29T20:02:06.604Z,3.37
2018-09-29T20:04:35.946Z,3.40
2018-09-29T20:07:06.250Z,3.40
2018-09-29T20:09:36.256Z,3.13
2018-09-29T20:12:05.665Z,3.10
2018-09-29T20:14:34.957Z,3.90
2018-09-29T20:17:04.880Z,3.47
2018-09-29T20:19:34.568Z,3.30
2018-09-29T20:22:04.519Z,3.10
2018-09-29T20:24:33.851Z,2.90
2018-09-29T20:27:03.241Z,3.20
2018-09-29T20:29:32.635Z,3.40
2018-09-29T20:32:02.128Z,3.00
2018-09-29T20:34:31.686Z,3.50
2018-09-29T20:37:01.123Z,3.80
2018-09-29T20:39:30.652Z,3.80
2018-09-29T20:42:00.279Z,3.70
2018-09-29T20:44:29.431Z,3.50
2018-09-29T20:46:58.815Z,3.90
2018-09-29T20:49:30.916Z,3.40
2018-09-29T20:52:00.857Z,3.67
2018-09-29T20:54:30.029Z,3.47
2018-09-29T20:56:59.449Z,3.53
2018-09-29T20:59:29.145Z,3.67
2018-09-29T21:01:58.680Z,4.13
2018-09-29T21:04:28.213Z,4.10
2018-09-29T21:06:57.608Z,4.07
2018-09-29T21:09:26.763Z,3.70
2018-09-29T21:11:56.181Z,4.50
2018-09-29T21:14:25.756Z,4.50
2018-09-29T21:16:55.362Z,3.50
2018-09-29T21:19:24.823Z,3.63
2018-09-29T21:21:54.123Z,4.20
2018-09-29T21:24:23.737Z,3.37
2018-09-29T21:26:53.620Z,4.13
2018-09-29T21:29:23.014Z,3.33
2018-09-29T21:31:51.982Z,2.93
2018-09-29T21:34:20.995Z,3.37
2018-09-29T21:36:50.027Z,3.83
2018-09-29T21:39:19.855Z,3.60
2018-09-29T21:41:49.120Z,4.00
2018-09-29T21:44:18.371Z,3.80
2018-09-29T21:46:47.490Z,4.00
2018-09-29T21:49:16.541Z,3.90
2018-09-29T21:51:45.641Z,3.63
2018-09-29T21:54:15.035Z,2.80
2018-09-29T21:56:45.700Z,3.47
2018-09-29T21:59:15.236Z,3.53
2018-09-29T22:01:44.533Z,3.47
2018-09-29T22:04:14.000Z,2.90
2018-09-29T22:06:43.254Z,3.70
2018-09-29T22:09:17.663Z,3.37
2018-09-29T22:11:49.481Z,4.10
2018-09-29T22:14:18.872Z,3.93
2018-09-29T22:16:48.223Z,3.80
2018-09-29T22:19:17.282Z,3.63
2018-09-29T22:21:46.297Z,3.70
2018-09-29T22:24:15.519Z,3.67
2018-09-29T22:26:44.910Z,4.30
2018-09-29T22:29:14.273Z,5.13
2018-09-29T22:31:43.350Z,4.30
2018-09-29T22:34:12.413Z,4.40
2018-09-29T22:36:41.522Z,4.57
2018-09-29T22:39:11.671Z,3.83
2018-09-29T22:41:40.614Z,4.23
2018-09-29T22:44:09.662Z,4.20
2018-09-29T22:46:38.715Z,4.90
2018-09-29T22:49:07.869Z,4.20
2018-09-29T22:51:37.237Z,5.03
2018-09-29T22:54:06.612Z,4.50
2018-09-29T22:56:35.531Z,5.03
2018-09-29T22:59:04.913Z,5.00
2018-09-29T23:01:34.121Z,4.47
2018-09-29T23:04:03.076Z,5.20
2018-09-29T23:06:32.008Z,5.10
2018-09-29T23:09:01.300Z,4.90
2018-09-29T23:11:30.668Z,5.17
2018-09-29T23:14:00.074Z,5.10
2018-09-29T23:16:29.165Z,5.00
2018-09-29T23:18:58.561Z,4.83
2018-09-29T23:21:27.537Z,4.80
2018-09-29T23:23:56.743Z,5.47
2018-09-29T23:26:26.563Z,5.73
2018-09-29T23:28:55.560Z,5.00
2018-09-29T23:31:24.553Z,5.00
2018-09-29T23:33:53.605Z,5.87
2018-09-29T23:36:22.791Z,4.93
2018-09-29T23:38:52.184Z,4.90
2018-09-29T23:41:21.432Z,5.13
2018-09-29T23:43:52.025Z,5.10
2018-09-29T23:46:20.968Z,5.10
2018-09-29T23:48:49.992Z,5.43
2018-09-29T23:51:19.472Z,5.10
2018-09-29T23:53:48.802Z,5.40
2018-09-29T23:56:19.266Z,5.20
2018-09-29T23:58:48.337Z,5.10
